METAR AND TAF INFORMATION
METAR FOR LGKP
ADDS - METARS form results

(1529 UTC 19 May 2019)
Data provider http://aviationweather.gov/metar/data/
 
METAR text: LGKP 191520Z 20005KT CAVOK 22/16 Q1013
Conditions at: LGKP (KARPATHOS , GR) observed 1520 UTC 19 May 2019
Temperature: 22.0°C (72°F)
Dewpoint: 16.0°C (61°F) [RH = 69%]
Pressure (altimeter): 29.91 inches Hg (1013.0 mb)
Winds: from the SSW (200 degrees) at 6 MPH (5 knots; 2.6 m/s)
Visibility: 6 or more miles (10+ km)
Ceiling: ceiling and visibility are OK
Clouds: unknown
Weather: no significant weather observed at this time

METAR text: LGKP 191450Z 21007KT CAVOK 22/16 Q1013
Conditions at: LGKP (KARPATHOS , GR) observed 1450 UTC 19 May 2019
Temperature: 22.0°C (72°F)
Dewpoint: 16.0°C (61°F) [RH = 69%]
Pressure (altimeter): 29.91 inches Hg (1013.0 mb)
Winds: from the SSW (210 degrees) at 8 MPH (7 knots; 3.6 m/s)
Visibility: 6 or more miles (10+ km)
Ceiling: ceiling and visibility are OK
Clouds: unknown
Weather: no significant weather observed at this time

Forecast for: LGKP (KARPATHOS , GR)
Text: TAF LGKP 191400Z 1915/1924 20018KT 9999 FEW025
Forecast period: 1500 UTC 19 May 2019 to 0000 UTC 20 May 2019
Forecast type: FROM: standard forecast or significant change
Winds: from the SSW (200 degrees) at 21 MPH (18 knots; 9.3 m/s)
Visibility: 6 or more miles 10+ km)
Ceiling: at least 12,000 feet AGL
Clouds: few clouds at 2500 feet AGL
Weather: no significant weather forecast for this period

 ΧΑΡΤΗΣ ΑΕΡΟΔΡΟΜΙΟΥ

 RUNWAY INFORMATION
Διάδρομος 12 Runway length 7871 ft Runway width 98 ft
Runway elevation 36 ft Runway displaced threshold 492 ft Runway heading 124
Διάδρομος 30 Runway length 7871 ft Runway width 98 ft
Runway elevation 62 ft Runway displaced threshold 492 ft Runway heading 304

 ΣΥΧΝΟΤΗΤΕΣ ΑΕΡΟΔΡΟΜΙΟΥ
Τύπος A/G Όνομα RDO Συχνότητα 563.7 MHZ
Τύπος INFO Όνομα INFO Συχνότητα 122.1 MHZ

 AIRPORT NEAR NAVIGATION AIDS
Τύπος NDB Όνομα Karpathos Συχνότητα 314 KHZ
Τύπος TACAN Όνομα Karpathos Συχνότητα 109600 KHZ



Hellenic Air Force Virtual - All rights reserved 2019 - Powered by VAM